createdAt,value
2023-04-27T00:01:52.627Z,7.49
2023-04-27T00:04:20.682Z,7.47
2023-04-27T00:06:47.354Z,7.44
2023-04-27T00:09:13.941Z,7.41
2023-04-27T00:11:40.628Z,7.38
2023-04-27T00:14:07.059Z,7.37
2023-04-27T00:16:33.589Z,7.36
2023-04-27T00:19:00.776Z,7.34
2023-04-27T00:21:27.205Z,7.29
2023-04-27T00:23:54.525Z,7.27
2023-04-27T00:26:22.307Z,7.25
2023-04-27T00:28:50.720Z,7.25
2023-04-27T00:31:17.190Z,7.23
2023-04-27T00:33:43.623Z,7.21
2023-04-27T00:36:10.147Z,7.18
2023-04-27T00:38:36.889Z,7.17
2023-04-27T00:41:07.235Z,7.15
2023-04-27T00:43:42.031Z,7.12
2023-04-27T00:46:09.202Z,7.10
2023-04-27T00:48:35.825Z,7.08
2023-04-27T00:51:02.329Z,7.07
2023-04-27T00:53:29.383Z,7.04
2023-04-27T00:55:57.845Z,7.01
2023-04-27T00:58:25.519Z,7.00
2023-04-27T01:00:52.288Z,6.95
2023-04-27T01:03:18.935Z,6.98
2023-04-27T01:05:45.878Z,6.94
2023-04-27T01:08:13.411Z,6.94
2023-04-27T01:10:41.160Z,6.89
2023-04-27T01:13:10.129Z,6.91
2023-04-27T01:15:37.906Z,6.87
2023-04-27T01:18:09.441Z,6.85
2023-04-27T01:20:36.259Z,6.85
2023-04-27T01:23:03.395Z,6.83
2023-04-27T01:25:29.838Z,6.81
2023-04-27T01:27:56.360Z,6.79
2023-04-27T01:30:22.973Z,6.79
2023-04-27T01:32:50.055Z,6.74
2023-04-27T01:35:18.994Z,6.74
2023-04-27T01:37:45.722Z,6.71
2023-04-27T01:40:13.071Z,6.68
2023-04-27T01:42:39.495Z,6.68
2023-04-27T01:45:09.057Z,6.64
2023-04-27T01:47:35.658Z,6.63
2023-04-27T01:50:02.311Z,6.61
2023-04-27T01:52:28.787Z,6.59
2023-04-27T01:54:55.490Z,6.57
2023-04-27T01:57:22.692Z,6.53
2023-04-27T01:59:49.217Z,6.51
2023-04-27T02:02:15.773Z,6.52
2023-04-27T02:04:43.225Z,6.50
2023-04-27T02:07:10.974Z,6.47
2023-04-27T02:09:37.538Z,6.45
2023-04-27T02:12:04.141Z,6.43
2023-04-27T02:14:30.545Z,6.39
2023-04-27T02:16:56.963Z,6.39
2023-04-27T02:19:23.382Z,6.37
2023-04-27T02:21:49.821Z,6.34
2023-04-27T02:24:16.452Z,6.33
2023-04-27T02:26:44.933Z,6.32
2023-04-27T02:29:11.511Z,6.30
2023-04-27T02:31:38.566Z,6.28
2023-04-27T02:34:05.178Z,6.25
2023-04-27T02:36:31.974Z,6.25
2023-04-27T02:38:58.411Z,6.24
2023-04-27T02:41:27.805Z,6.20
2023-04-27T02:43:54.220Z,6.20
2023-04-27T02:46:20.750Z,6.16
2023-04-27T02:48:47.188Z,6.16
2023-04-27T02:51:13.665Z,6.14
2023-04-27T02:53:40.147Z,6.11
2023-04-27T02:56:06.671Z,6.11
2023-04-27T02:58:33.143Z,6.08
2023-04-27T03:00:59.672Z,6.06
2023-04-27T03:03:26.400Z,6.05
2023-04-27T03:05:52.916Z,6.00
2023-04-27T03:08:19.355Z,6.02
2023-04-27T03:10:45.814Z,6.01
2023-04-27T03:13:12.206Z,6.00
2023-04-27T03:15:38.657Z,5.94
2023-04-27T03:18:05.610Z,5.92
2023-04-27T03:20:33.656Z,5.97
2023-04-27T03:23:00.140Z,5.94
2023-04-27T03:25:26.670Z,5.93
2023-04-27T03:27:53.125Z,5.89
2023-04-27T03:30:22.730Z,5.91
2023-04-27T03:32:49.202Z,5.88
2023-04-27T03:35:15.889Z,5.87
2023-04-27T03:37:42.348Z,5.84
2023-04-27T03:40:09.365Z,5.84
2023-04-27T03:42:36.551Z,5.81
2023-04-27T03:45:03.057Z,5.83
2023-04-27T03:47:29.648Z,5.79
2023-04-27T03:49:57.020Z,5.78
2023-04-27T03:52:23.517Z,5.75
2023-04-27T03:54:50.207Z,5.78
2023-04-27T03:57:17.884Z,5.75
2023-04-27T03:59:44.288Z,5.74
2023-04-27T04:02:11.620Z,5.74
2023-04-27T04:04:38.501Z,5.73
2023-04-27T04:07:05.774Z,5.74
2023-04-27T04:09:32.334Z,5.70
2023-04-27T04:11:59.293Z,5.72
2023-04-27T04:14:27.234Z,5.68
2023-04-27T04:16:54.576Z,5.67
2023-04-27T04:19:22.104Z,5.67
2023-04-27T04:21:48.809Z,5.61
2023-04-27T04:24:16.088Z,5.64
2023-04-27T04:26:43.085Z,5.58
2023-04-27T04:29:10.968Z,5.62
2023-04-27T04:31:38.254Z,5.62
2023-04-27T04:34:04.892Z,5.60
2023-04-27T04:36:32.029Z,5.57
2023-04-27T04:38:58.633Z,5.56
2023-04-27T04:41:26.203Z,5.57
2023-04-27T04:43:52.699Z,5.56
2023-04-27T04:46:19.940Z,5.56
2023-04-27T04:48:46.848Z,5.54
2023-04-27T04:51:13.440Z,5.54
2023-04-27T04:53:39.976Z,5.53
2023-04-27T04:56:10.944Z,5.50
2023-04-27T04:58:37.457Z,5.51
2023-04-27T05:01:04.731Z,5.51
2023-04-27T05:03:31.662Z,5.50
2023-04-27T05:05:58.180Z,5.51
2023-04-27T05:08:24.865Z,5.50
2023-04-27T05:10:52.535Z,5.49
2023-04-27T05:13:19.668Z,5.47
2023-04-27T05:15:46.722Z,5.53
2023-04-27T05:18:13.217Z,5.50
2023-04-27T05:20:39.596Z,5.54
2023-04-27T05:23:06.024Z,5.56
2023-04-27T05:25:33.017Z,5.57
2023-04-27T05:27:59.467Z,5.56
2023-04-27T05:30:26.020Z,5.58
2023-04-27T05:32:52.653Z,5.60
2023-04-27T05:35:19.082Z,5.63
2023-04-27T05:37:45.512Z,5.65
2023-04-27T05:40:12.437Z,5.69
2023-04-27T05:42:39.007Z,5.74
2023-04-27T05:45:09.273Z,5.79
2023-04-27T05:47:36.480Z,5.81
2023-04-27T05:50:03.758Z,5.87
2023-04-27T05:52:31.288Z,5.91
2023-04-27T05:54:58.593Z,5.95
2023-04-27T05:57:26.033Z,6.00
2023-04-27T05:59:53.167Z,6.01
2023-04-27T06:02:20.003Z,6.06
2023-04-27T06:04:46.662Z,6.08
2023-04-27T06:07:14.662Z,6.13
2023-04-27T06:09:41.910Z,6.18
2023-04-27T06:12:09.329Z,6.16
2023-04-27T06:14:37.541Z,6.24
2023-04-27T06:17:04.358Z,6.26
2023-04-27T06:19:31.493Z,6.28
2023-04-27T06:21:57.878Z,6.29
2023-04-27T06:24:24.318Z,6.32
2023-04-27T06:26:51.071Z,6.37
2023-04-27T06:29:17.718Z,6.39
2023-04-27T06:31:44.446Z,6.41
2023-04-27T06:34:10.981Z,6.44
2023-04-27T06:36:37.390Z,6.45
2023-04-27T06:39:03.806Z,6.48
2023-04-27T06:41:30.641Z,6.50
2023-04-27T06:43:58.566Z,6.53
2023-04-27T06:46:26.035Z,6.53
2023-04-27T06:48:52.744Z,6.56
2023-04-27T06:51:19.413Z,6.58
2023-04-27T06:53:45.881Z,6.60
2023-04-27T06:56:12.364Z,6.62
2023-04-27T06:58:38.760Z,6.67
2023-04-27T07:01:05.325Z,6.68
2023-04-27T07:03:34.892Z,6.70
2023-04-27T07:06:01.665Z,6.71
2023-04-27T07:08:28.097Z,6.77
2023-04-27T07:10:56.046Z,6.79
2023-04-27T07:13:22.562Z,6.77
2023-04-27T07:15:54.831Z,6.83
2023-04-27T07:18:21.303Z,6.84
2023-04-27T07:20:47.679Z,6.89
2023-04-27T07:23:14.581Z,6.92
2023-04-27T07:25:41.025Z,6.92
2023-04-27T07:28:07.554Z,6.94
2023-04-27T07:30:36.410Z,6.99
2023-04-27T07:33:03.052Z,7.03
2023-04-27T07:35:29.686Z,7.03
2023-04-27T07:37:56.593Z,7.08
2023-04-27T07:40:24.176Z,7.09
2023-04-27T07:42:51.127Z,7.11
2023-04-27T07:45:17.978Z,7.19
2023-04-27T07:47:44.620Z,7.20
2023-04-27T07:50:11.192Z,7.24
2023-04-27T07:52:37.593Z,7.28
2023-04-27T07:55:04.660Z,7.31
2023-04-27T07:57:31.476Z,7.33
2023-04-27T07:59:58.037Z,7.41
2023-04-27T08:02:26.762Z,7.43
2023-04-27T08:04:53.529Z,7.45
2023-04-27T08:07:20.437Z,7.49
2023-04-27T08:09:47.032Z,7.55
2023-04-27T08:12:13.936Z,7.55
2023-04-27T08:14:40.419Z,7.59
2023-04-27T08:17:06.998Z,7.64
2023-04-27T08:19:33.483Z,7.69
2023-04-27T08:22:00.757Z,7.72
2023-04-27T08:24:27.178Z,7.76
2023-04-27T08:26:53.592Z,7.77
2023-04-27T08:29:27.960Z,7.82
2023-04-27T08:31:58.605Z,7.85
2023-04-27T08:34:25.703Z,7.89
2023-04-27T08:36:52.129Z,7.93
2023-04-27T08:39:18.939Z,7.96
2023-04-27T08:41:46.272Z,7.97
2023-04-27T08:44:12.790Z,8.02
2023-04-27T08:46:39.559Z,8.05
2023-04-27T08:49:07.395Z,8.09
2023-04-27T08:51:34.509Z,8.13
2023-04-27T08:54:01.317Z,8.17
2023-04-27T08:56:29.137Z,8.18
2023-04-27T08:58:57.294Z,8.25
2023-04-27T09:01:25.157Z,8.26
2023-04-27T09:04:00.013Z,8.28
2023-04-27T09:06:32.043Z,8.32
2023-04-27T09:08:59.002Z,8.35
2023-04-27T09:11:37.071Z,8.33
2023-04-27T09:14:19.334Z,8.38
2023-04-27T09:16:46.420Z,8.39
2023-04-27T09:19:24.066Z,8.40
2023-04-27T09:21:51.612Z,8.46
2023-04-27T09:24:18.063Z,8.45
2023-04-27T09:26:49.950Z,8.49
2023-04-27T09:29:16.403Z,8.51
2023-04-27T09:31:42.823Z,8.51
2023-04-27T09:34:09.236Z,8.54
2023-04-27T09:36:36.030Z,8.59
2023-04-27T09:39:06.433Z,8.59
2023-04-27T09:41:33.327Z,8.63
2023-04-27T09:44:00.133Z,8.65
2023-04-27T09:46:29.821Z,8.69
2023-04-27T09:48:57.340Z,8.74
2023-04-27T09:51:23.746Z,8.74
2023-04-27T09:53:54.154Z,8.79
2023-04-27T09:56:28.340Z,8.82
2023-04-27T09:59:23.166Z,8.82
2023-04-27T10:01:55.158Z,8.80
2023-04-27T10:04:55.878Z,8.85
2023-04-27T10:07:22.960Z,8.91
2023-04-27T10:09:51.692Z,8.94
2023-04-27T10:12:26.199Z,8.99
2023-04-27T10:14:58.205Z,9.00
2023-04-27T10:17:32.727Z,9.02
2023-04-27T10:20:01.437Z,9.08
2023-04-27T10:22:58.142Z,9.10
2023-04-27T10:25:38.912Z,9.14
2023-04-27T10:28:07.979Z,9.19
2023-04-27T10:30:37.307Z,9.23
2023-04-27T10:33:09.745Z,9.26
2023-04-27T10:35:38.683Z,9.27
2023-04-27T10:38:09.948Z,9.32
2023-04-27T10:40:39.656Z,9.35
2023-04-27T10:43:14.265Z,9.39
2023-04-27T10:45:42.486Z,9.41
2023-04-27T10:48:13.018Z,9.44
2023-04-27T10:50:40.423Z,9.46
2023-04-27T10:53:08.084Z,9.50
2023-04-27T10:55:35.571Z,9.49
2023-04-27T10:58:02.490Z,9.53
2023-04-27T11:00:32.392Z,9.58
2023-04-27T11:03:11.894Z,9.60
2023-04-27T11:05:38.982Z,9.60
2023-04-27T11:08:08.321Z,9.65
2023-04-27T11:10:38.102Z,9.70
2023-04-27T11:13:09.179Z,9.67
2023-04-27T11:15:43.721Z,9.73
2023-04-27T11:18:10.831Z,9.74
2023-04-27T11:20:37.305Z,9.80
2023-04-27T11:23:04.258Z,9.80
2023-04-27T11:25:30.719Z,9.84
2023-04-27T11:27:57.130Z,9.84
2023-04-27T11:30:24.098Z,9.85
2023-04-27T11:32:51.259Z,9.90
2023-04-27T11:35:18.297Z,9.95
2023-04-27T11:37:44.919Z,9.99
2023-04-27T11:40:14.386Z,10.02
2023-04-27T11:42:43.546Z,10.06
2023-04-27T11:45:12.172Z,10.09
2023-04-27T11:47:40.891Z,10.13
2023-04-27T11:50:08.422Z,10.10
2023-04-27T11:52:37.073Z,10.18
2023-04-27T11:55:04.905Z,10.21
2023-04-27T11:57:34.038Z,10.25
2023-04-27T12:00:02.332Z,10.28
2023-04-27T12:02:40.406Z,10.31
2023-04-27T12:05:08.006Z,10.34
2023-04-27T12:07:35.831Z,10.40
2023-04-27T12:10:02.284Z,10.43
2023-04-27T12:12:28.781Z,10.46
2023-04-27T12:14:55.281Z,10.47
2023-04-27T12:17:21.715Z,10.50
2023-04-27T12:19:48.134Z,10.55
2023-04-27T12:22:14.564Z,10.56
2023-04-27T12:24:41.022Z,10.60
2023-04-27T12:27:08.323Z,10.61
2023-04-27T12:29:35.085Z,10.64
2023-04-27T12:32:01.622Z,10.65
2023-04-27T12:34:30.812Z,10.66
2023-04-27T12:36:57.264Z,10.71
2023-04-27T12:39:25.351Z,10.74
2023-04-27T12:41:53.694Z,10.72
2023-04-27T12:44:21.553Z,10.76
2023-04-27T12:46:49.037Z,10.81
2023-04-27T12:49:16.620Z,10.85
2023-04-27T12:51:43.249Z,10.86
2023-04-27T12:54:11.167Z,10.89
2023-04-27T12:56:37.768Z,10.93
2023-04-27T12:59:05.858Z,10.92
2023-04-27T13:01:32.424Z,10.99
2023-04-27T13:04:01.638Z,11.00
2023-04-27T13:06:29.405Z,11.03
2023-04-27T13:08:56.363Z,11.03
2023-04-27T13:11:24.270Z,11.06
2023-04-27T13:13:50.966Z,11.04
2023-04-27T13:16:19.586Z,11.07
2023-04-27T13:18:49.808Z,11.06
2023-04-27T13:21:16.613Z,11.07
2023-04-27T13:23:43.457Z,11.12
2023-04-27T13:26:10.267Z,11.12
2023-04-27T13:28:36.778Z,11.14
2023-04-27T13:31:04.041Z,11.18
2023-04-27T13:33:32.051Z,11.18
2023-04-27T13:36:02.007Z,11.20
2023-04-27T13:38:28.911Z,11.20
2023-04-27T13:40:55.424Z,11.22
2023-04-27T13:43:21.907Z,11.25
2023-04-27T13:45:49.809Z,11.27
2023-04-27T13:48:16.258Z,11.27
2023-04-27T13:50:42.687Z,11.30
2023-04-27T13:53:09.427Z,11.27
2023-04-27T13:55:36.486Z,11.35
2023-04-27T13:58:03.030Z,11.34
2023-04-27T14:00:33.331Z,11.36
2023-04-27T14:03:01.423Z,11.40
2023-04-27T14:05:27.976Z,11.38
2023-04-27T14:07:54.436Z,11.40
2023-04-27T14:10:20.919Z,11.42
2023-04-27T14:12:47.473Z,11.42
2023-04-27T14:15:14.417Z,11.42
2023-04-27T14:17:41.194Z,11.43
2023-04-27T14:20:08.297Z,11.43
2023-04-27T14:22:36.172Z,11.43
2023-04-27T14:25:03.013Z,11.46
2023-04-27T14:27:29.610Z,11.46
2023-04-27T14:29:56.456Z,11.45
2023-04-27T14:32:23.380Z,11.48
2023-04-27T14:34:49.833Z,11.50
2023-04-27T14:37:16.279Z,11.48
2023-04-27T14:39:45.123Z,11.54
2023-04-27T14:42:11.910Z,11.55
2023-04-27T14:44:38.325Z,11.54
2023-04-27T14:47:04.943Z,11.57
2023-04-27T14:49:32.056Z,11.60
2023-04-27T14:52:00.426Z,11.54
2023-04-27T14:54:26.881Z,11.63
2023-04-27T14:56:53.369Z,11.65
2023-04-27T14:59:19.873Z,11.67
2023-04-27T15:01:46.420Z,11.70
2023-04-27T15:04:12.999Z,11.71
2023-04-27T15:06:39.503Z,11.72
2023-04-27T15:09:06.206Z,11.73
2023-04-27T15:11:32.888Z,11.76
2023-04-27T15:13:59.341Z,11.77
2023-04-27T15:16:25.949Z,11.79
2023-04-27T15:18:52.428Z,11.80
2023-04-27T15:21:18.854Z,11.82
2023-04-27T15:23:45.364Z,11.83
2023-04-27T15:26:11.819Z,11.86
2023-04-27T15:28:38.527Z,11.85
2023-04-27T15:31:05.276Z,11.84
2023-04-27T15:33:31.791Z,11.87
2023-04-27T15:35:59.085Z,11.90
2023-04-27T15:38:26.326Z,11.89
2023-04-27T15:40:52.816Z,11.92
2023-04-27T15:43:19.287Z,11.92
2023-04-27T15:45:45.863Z,11.94
2023-04-27T15:48:12.420Z,11.96
2023-04-27T15:50:39.289Z,11.94
2023-04-27T15:53:06.198Z,11.96
2023-04-27T15:55:32.787Z,12.01
2023-04-27T15:57:59.212Z,12.03
2023-04-27T16:00:25.730Z,12.08
2023-04-27T16:02:52.458Z,12.10
2023-04-27T16:05:19.090Z,12.07
2023-04-27T16:07:45.923Z,12.20
2023-04-27T16:10:13.129Z,12.19
2023-04-27T16:12:39.753Z,12.31
2023-04-27T16:15:10.079Z,12.34
2023-04-27T16:17:37.825Z,12.36
2023-04-27T16:20:07.931Z,12.42
2023-04-27T16:22:34.900Z,12.47
2023-04-27T16:25:02.193Z,12.51
2023-04-27T16:27:28.600Z,12.51
2023-04-27T16:29:55.724Z,12.54
2023-04-27T16:32:23.227Z,12.58
2023-04-27T16:34:49.955Z,12.63
2023-04-27T16:37:16.428Z,12.65
2023-04-27T16:39:42.892Z,12.68
2023-04-27T16:42:09.701Z,12.74
2023-04-27T16:44:37.967Z,12.79
2023-04-27T16:47:04.443Z,12.84
2023-04-27T16:49:30.928Z,12.88
2023-04-27T16:51:57.429Z,12.89
2023-04-27T16:54:23.854Z,12.94
2023-04-27T16:56:50.305Z,12.95
2023-04-27T16:59:17.148Z,13.01
2023-04-27T17:01:50.198Z,13.05
2023-04-27T17:04:17.043Z,13.06
2023-04-27T17:06:45.820Z,13.11
2023-04-27T17:09:12.437Z,13.12
2023-04-27T17:11:38.934Z,13.11
2023-04-27T17:14:05.454Z,13.12
2023-04-27T17:16:31.951Z,13.17
2023-04-27T17:18:58.422Z,13.20
2023-04-27T17:21:27.317Z,13.18
2023-04-27T17:23:53.889Z,13.20
2023-04-27T17:26:21.477Z,13.18
2023-04-27T17:28:48.232Z,13.22
2023-04-27T17:31:17.351Z,13.20
2023-04-27T17:33:44.162Z,13.20
2023-04-27T17:36:11.230Z,13.18
2023-04-27T17:38:37.724Z,13.18
2023-04-27T17:41:04.189Z,13.17
2023-04-27T17:43:30.762Z,13.14
2023-04-27T17:45:57.267Z,13.16
2023-04-27T17:48:24.113Z,13.11
2023-04-27T17:50:50.530Z,13.09
2023-04-27T17:53:17.012Z,13.11
2023-04-27T17:55:47.599Z,13.09
2023-04-27T17:58:15.397Z,13.07
2023-04-27T18:00:43.055Z,13.04
2023-04-27T18:03:09.975Z,13.03
2023-04-27T18:05:36.728Z,13.00
2023-04-27T18:08:03.576Z,12.98
2023-04-27T18:10:33.070Z,12.97
2023-04-27T18:12:59.738Z,12.95
2023-04-27T18:15:26.154Z,12.92
2023-04-27T18:17:52.594Z,12.89
2023-04-27T18:20:19.103Z,12.86
2023-04-27T18:22:45.577Z,12.83
2023-04-27T18:25:13.089Z,12.84
2023-04-27T18:27:39.545Z,12.82
2023-04-27T18:30:07.774Z,12.81
2023-04-27T18:32:34.838Z,12.74
2023-04-27T18:35:02.286Z,12.71
2023-04-27T18:37:29.289Z,12.72
2023-04-27T18:39:56.155Z,12.65
2023-04-27T18:42:23.396Z,12.65
2023-04-27T18:44:52.005Z,12.61
2023-04-27T18:47:18.489Z,12.61
2023-04-27T18:49:44.882Z,12.57
2023-04-27T18:52:11.606Z,12.56
2023-04-27T18:54:38.610Z,12.54
2023-04-27T18:57:05.060Z,12.51
2023-04-27T18:59:31.549Z,12.46
2023-04-27T19:01:58.117Z,12.45
2023-04-27T19:04:26.089Z,12.40
2023-04-27T19:06:52.607Z,12.37
2023-04-27T19:09:19.216Z,12.36
2023-04-27T19:11:49.418Z,12.32
2023-04-27T19:14:19.778Z,12.29
2023-04-27T19:16:46.477Z,12.26
2023-04-27T19:19:13.263Z,12.24
2023-04-27T19:21:41.810Z,12.19
2023-04-27T19:24:08.358Z,12.18
2023-04-27T19:26:35.151Z,12.16
2023-04-27T19:29:02.261Z,12.10
2023-04-27T19:31:28.776Z,12.08
2023-04-27T19:33:55.808Z,12.06
2023-04-27T19:36:30.629Z,12.01
2023-04-27T19:38:57.257Z,11.98
2023-04-27T19:41:25.014Z,11.96
2023-04-27T19:43:51.463Z,11.95
2023-04-27T19:46:17.950Z,11.93
2023-04-27T19:48:44.392Z,11.89
2023-04-27T19:51:10.984Z,11.89
2023-04-27T19:53:38.087Z,11.81
2023-04-27T19:56:04.550Z,11.74
2023-04-27T19:58:31.147Z,11.77
2023-04-27T20:00:57.671Z,11.76
2023-04-27T20:03:24.449Z,11.75
2023-04-27T20:05:51.636Z,11.73
2023-04-27T20:08:18.352Z,11.67
2023-04-27T20:10:44.777Z,11.68
2023-04-27T20:13:11.253Z,11.66
2023-04-27T20:15:37.705Z,11.62
2023-04-27T20:18:04.346Z,11.58
2023-04-27T20:20:30.884Z,11.57
2023-04-27T20:22:57.372Z,11.56
2023-04-27T20:25:26.189Z,11.53
2023-04-27T20:27:52.908Z,11.46
2023-04-27T20:30:19.432Z,11.46
2023-04-27T20:32:46.529Z,11.43
2023-04-27T20:35:13.222Z,11.44
2023-04-27T20:37:41.865Z,11.42
2023-04-27T20:40:13.432Z,11.40
2023-04-27T20:42:40.770Z,11.36
2023-04-27T20:45:10.183Z,11.32
2023-04-27T20:47:37.649Z,11.34
2023-04-27T20:50:04.932Z,11.30
2023-04-27T20:52:33.912Z,11.28
2023-04-27T20:55:01.408Z,11.22
2023-04-27T20:57:27.859Z,11.21
2023-04-27T20:59:54.367Z,11.21
2023-04-27T21:02:20.827Z,11.17
2023-04-27T21:04:48.259Z,11.17
2023-04-27T21:07:14.738Z,11.13
2023-04-27T21:09:41.591Z,11.12
2023-04-27T21:12:08.673Z,11.11
2023-04-27T21:14:35.172Z,11.08
2023-04-27T21:17:01.734Z,11.08
2023-04-27T21:19:28.193Z,11.07
2023-04-27T21:21:54.619Z,11.04
2023-04-27T21:24:22.338Z,10.99
2023-04-27T21:26:48.982Z,11.01
2023-04-27T21:29:15.443Z,10.94
2023-04-27T21:31:41.903Z,10.94
2023-04-27T21:34:08.318Z,10.95
2023-04-27T21:36:34.757Z,10.92
2023-04-27T21:39:01.249Z,10.89
2023-04-27T21:41:27.707Z,10.85
2023-04-27T21:43:54.521Z,10.88
2023-04-27T21:46:23.156Z,10.86
2023-04-27T21:48:49.613Z,10.85
2023-04-27T21:51:16.034Z,10.80
2023-04-27T21:53:42.461Z,10.81
2023-04-27T21:56:09.008Z,10.79
2023-04-27T21:58:35.384Z,10.73
2023-04-27T22:01:02.299Z,10.76
2023-04-27T22:03:28.936Z,10.73
2023-04-27T22:05:57.425Z,10.71
2023-04-27T22:08:23.914Z,10.67
2023-04-27T22:10:50.348Z,10.66
2023-04-27T22:13:19.165Z,10.66
2023-04-27T22:15:46.396Z,10.62
2023-04-27T22:18:14.342Z,10.60
2023-04-27T22:20:42.276Z,10.61
2023-04-27T22:23:09.409Z,10.57
2023-04-27T22:25:36.122Z,10.57
2023-04-27T22:28:02.627Z,10.55
2023-04-27T22:30:29.312Z,10.52
2023-04-27T22:32:56.284Z,10.48
2023-04-27T22:35:27.072Z,10.47
2023-04-27T22:37:55.655Z,10.48
2023-04-27T22:40:22.345Z,10.45
2023-04-27T22:42:48.859Z,10.40
2023-04-27T22:45:15.327Z,10.39
2023-04-27T22:47:41.878Z,10.39
2023-04-27T22:50:08.604Z,10.38
2023-04-27T22:52:37.156Z,10.33
2023-04-27T22:55:04.277Z,10.29
2023-04-27T22:57:30.872Z,10.30
2023-04-27T22:59:57.342Z,10.29
2023-04-27T23:02:23.942Z,10.28
2023-04-27T23:04:50.916Z,10.26
2023-04-27T23:07:18.311Z,10.21
2023-04-27T23:09:45.709Z,10.20
2023-04-27T23:12:12.190Z,10.20
2023-04-27T23:14:39.993Z,10.16
2023-04-27T23:17:07.358Z,10.11
2023-04-27T23:19:34.468Z,10.13
2023-04-27T23:22:01.765Z,10.08
2023-04-27T23:24:31.311Z,10.06
2023-04-27T23:26:58.351Z,10.06
2023-04-27T23:29:25.359Z,10.01
2023-04-27T23:31:51.898Z,10.02
2023-04-27T23:34:18.690Z,9.99
2023-04-27T23:36:45.205Z,9.97
2023-04-27T23:39:11.644Z,9.95
2023-04-27T23:41:38.256Z,9.90
2023-04-27T23:44:04.767Z,9.88
2023-04-27T23:46:31.229Z,9.86
2023-04-27T23:48:57.785Z,9.83
2023-04-27T23:51:24.276Z,9.81
2023-04-27T23:53:50.743Z,9.79
2023-04-27T23:56:18.056Z,9.79
2023-04-27T23:58:44.821Z,9.75
